Northville, New York
Current Conditions -  °F | °C
As of 4:55 AM on Thursday 23 Oct 2014 (Local Time) from KNY0 Reporting Station
Overcast Overcast  
Wind Chill: 46°   Ceiling: 2300
Heat Index: 46°   Visibility: 7mi
Dew Point: 44°   Wind: 3mph
Humidity: 92%   Direction: 30°NNE
Pressure: 29.89"   Gusts: NA
Location:  43.23°N, 74.17°W
Report Text: KNY0 230855Z AUTO 03003KT 7SM OVC023 08/07 A2989 RMK AO2 P0014 60020 T00770065
Loading
Personal Weather Stations






























Interactive Weather Map
Tropical Storm Tracking
New forecast layout! Learn more

10-Day Weather Forecast

Advertisements
Track Severe Weather on mobile